Time,TemperatureF,DewpointF,PressureIn,WindDirection,WindDirectionDegrees,WindSpeedMPH,WindSpeedGustMPH,Humidity,HourlyPrecipIn,Conditions,Clouds,dailyrainin,SoftwareType,DateUTC
2013-02-21 00:00:00,40.9,36.0,29.88,East,90,0.4,0.9,83,0.00,,,0.00,WUHU216HW,2013-02-21 07:00:00,
2013-02-21 00:05:00,40.9,35.7,29.88,ENE,68,0.9,0.9,82,0.00,,,0.00,WUHU216HW,2013-02-21 07:05:00,
2013-02-21 00:10:00,41.0,35.9,29.88,ENE,68,0.7,1.6,82,0.00,,,0.00,WUHU216HW,2013-02-21 07:10:00,
2013-02-21 00:15:00,41.0,35.9,29.88,East,90,0.7,1.6,82,0.00,,,0.00,WUHU216HW,2013-02-21 07:15:00,
2013-02-21 00:20:00,40.9,35.7,29.88,ESE,113,0.4,1.6,82,0.00,,,0.00,WUHU216HW,2013-02-21 07:20:00,
2013-02-21 00:25:00,40.9,35.7,29.88,East,90,0.4,1.8,82,0.00,,,0.00,WUHU216HW,2013-02-21 07:25:00,
2013-02-21 00:30:00,40.9,35.7,29.88,East,90,0.9,1.8,82,0.00,,,0.00,WUHU216HW,2013-02-21 07:30:00,
2013-02-21 00:35:00,40.9,35.7,29.88,ENE,68,0.4,1.6,82,0.00,,,0.00,WUHU216HW,2013-02-21 07:35:00,
2013-02-21 00:40:00,41.0,36.2,29.88,NE,45,0.4,1.6,83,0.00,,,0.00,WUHU216HW,2013-02-21 07:40:00,
2013-02-21 00:45:00,41.0,35.9,29.88,East,90,0.4,1.1,82,0.00,,,0.00,WUHU216HW,2013-02-21 07:45:00,
2013-02-21 00:50:00,41.0,35.6,29.89,ENE,68,0.0,0.4,81,0.00,,,0.00,WUHU216HW,2013-02-21 07:50:00,
2013-02-21 00:55:00,40.7,35.3,29.89,ENE,68,0.2,0.2,81,0.00,,,0.00,WUHU216HW,2013-02-21 07:55:00,
2013-02-21 01:00:00,40.7,35.6,29.89,ENE,68,0.4,0.4,82,0.00,,,0.00,WUHU216HW,2013-02-21 08:00:00,
2013-02-21 01:05:00,40.7,35.6,29.88,ENE,68,0.4,0.4,82,0.00,,,0.00,WUHU216HW,2013-02-21 08:05:00,
2013-02-21 01:10:00,40.9,35.7,29.88,ENE,68,0.9,1.3,82,0.00,,,0.00,WUHU216HW,2013-02-21 08:10:00,
2013-02-21 01:15:00,40.9,35.7,29.88,East,90,0.9,1.3,82,0.00,,,0.00,WUHU216HW,2013-02-21 08:15:00,
2013-02-21 01:16:00,40.9,35.5,29.88,ENE,68,0.7,0.7,81,0.00,,,0.00,WUHU216HW,2013-02-21 08:16:00,
2013-02-21 01:20:00,40.9,35.5,29.88,ENE,68,0.7,0.9,81,0.00,,,0.00,WUHU216HW,2013-02-21 08:20:00,
2013-02-21 01:25:00,40.9,35.5,29.88,ENE,68,0.7,0.7,81,0.00,,,0.00,WUHU216HW,2013-02-21 08:25:00,
2013-02-21 01:46:00,41.0,35.6,29.89,ENE,68,0.0,0.0,81,0.00,,,0.00,WUHU216HW,2013-02-21 08:46:00,
2013-02-21 01:51:00,41.0,35.6,29.89,ENE,68,0.7,0.9,81,0.00,,,0.00,WUHU216HW,2013-02-21 08:51:00,
2013-02-21 01:56:00,41.2,35.7,29.90,ENE,68,0.2,1.3,81,0.00,,,0.00,WUHU216HW,2013-02-21 08:56:00,
2013-02-21 02:01:00,41.4,35.9,29.89,East,90,0.9,1.3,81,0.00,,,0.00,WUHU216HW,2013-02-21 09:01:00,
2013-02-21 02:06:00,41.4,35.9,29.89,ENE,68,1.1,1.1,81,0.00,,,0.00,WUHU216HW,2013-02-21 09:06:00,
2013-02-21 02:11:00,41.4,35.9,29.90,ENE,68,0.4,1.3,81,0.00,,,0.00,WUHU216HW,2013-02-21 09:11:00,
2013-02-21 02:16:00,41.4,35.9,29.89,East,90,1.6,1.6,81,0.00,,,0.00,WUHU216HW,2013-02-21 09:16:00,
2013-02-21 02:21:00,41.4,35.9,29.89,ENE,68,1.8,1.8,81,0.00,,,0.00,WUHU216HW,2013-02-21 09:21:00,
2013-02-21 02:26:00,41.6,36.1,29.89,ENE,68,0.4,1.8,81,0.00,,,0.00,WUHU216HW,2013-02-21 09:26:00,
2013-02-21 02:31:00,41.6,36.1,29.89,East,90,0.7,1.8,81,0.00,,,0.00,WUHU216HW,2013-02-21 09:31:00,
2013-02-21 02:36:00,41.8,36.3,29.89,ESE,113,0.7,1.8,81,0.00,,,0.00,WUHU216HW,2013-02-21 09:36:00,
2013-02-21 02:41:00,41.9,36.5,29.89,ESE,113,1.1,1.8,81,0.00,,,0.00,WUHU216HW,2013-02-21 09:41:00,
2013-02-21 02:46:00,41.9,36.5,29.89,ENE,68,1.3,1.6,81,0.00,,,0.00,WUHU216HW,2013-02-21 09:46:00,
2013-02-21 02:51:00,42.1,36.6,29.89,SE,135,0.7,1.8,81,0.00,,,0.00,WUHU216HW,2013-02-21 09:51:00,
2013-02-21 02:56:00,42.1,36.6,29.90,ESE,113,1.1,2.5,81,0.00,,,0.00,WUHU216HW,2013-02-21 09:56:00,
2013-02-21 03:01:00,42.1,36.6,29.89,East,90,1.1,2.5,81,0.00,,,0.00,WUHU216HW,2013-02-21 10:01:00,
2013-02-21 03:06:00,42.1,36.6,29.90,ENE,68,0.4,2.7,81,0.00,,,0.00,WUHU216HW,2013-02-21 10:06:00,
2013-02-21 03:11:00,41.8,36.3,29.89,ENE,68,0.7,2.7,81,0.00,,,0.00,WUHU216HW,2013-02-21 10:11:00,
2013-02-21 03:16:00,41.8,36.3,29.89,ESE,113,2.0,2.5,81,0.00,,,0.00,WUHU216HW,2013-02-21 10:16:00,
2013-02-21 03:21:00,41.8,36.3,29.89,ESE,113,2.0,2.0,81,0.00,,,0.00,WUHU216HW,2013-02-21 10:21:00,
2013-02-21 03:43:00,40.5,35.7,29.90,East,90,0.0,0.0,83,0.00,,,0.00,WUHU216HW,2013-02-21 10:43:00,
2013-02-21 03:48:00,40.7,35.8,29.90,East,90,0.9,1.8,83,0.00,,,0.00,WUHU216HW,2013-02-21 10:48:00,
2013-02-21 03:53:00,40.7,35.6,29.91,East,90,0.2,1.8,82,0.00,,,0.00,WUHU216HW,2013-02-21 10:53:00,
2013-02-21 03:58:00,40.7,35.6,29.91,ESE,113,1.6,1.6,82,0.00,,,0.00,WUHU216HW,2013-02-21 10:58:00,
2013-02-21 04:03:00,40.5,35.4,29.90,ESE,113,0.4,1.8,82,0.00,,,0.00,WUHU216HW,2013-02-21 11:03:00,
2013-02-21 04:08:00,40.5,35.4,29.90,NE,45,0.9,2.2,82,0.00,,,0.00,WUHU216HW,2013-02-21 11:08:00,
2013-02-21 04:13:00,40.5,35.4,29.90,ENE,68,2.0,2.2,82,0.00,,,0.00,WUHU216HW,2013-02-21 11:13:00,
2013-02-21 04:18:00,40.5,35.4,29.90,NE,45,1.8,2.0,82,0.00,,,0.00,WUHU216HW,2013-02-21 11:18:00,
2013-02-21 04:23:00,40.3,35.2,29.90,ENE,68,0.4,1.8,82,0.00,,,0.00,WUHU216HW,2013-02-21 11:23:00,
2013-02-21 04:28:00,40.3,35.2,29.90,ENE,68,1.1,1.8,82,0.00,,,0.00,WUHU216HW,2013-02-21 11:28:00,
2013-02-21 04:33:00,40.3,35.2,29.90,ENE,68,1.1,2.0,82,0.00,,,0.00,WUHU216HW,2013-02-21 11:33:00,
2013-02-21 04:38:00,40.1,35.4,29.90,East,90,0.9,2.0,83,0.00,,,0.00,WUHU216HW,2013-02-21 11:38:00,
2013-02-21 04:43:00,40.1,35.4,29.90,East,90,1.1,2.0,83,0.00,,,0.00,WUHU216HW,2013-02-21 11:43:00,
2013-02-21 04:48:00,40.1,35.4,29.91,ENE,68,1.1,1.6,83,0.01,,,0.01,WUHU216HW,2013-02-21 11:48:00,
2013-02-21 04:53:00,40.3,35.6,29.91,ENE,68,0.0,1.6,83,0.01,,,0.01,WUHU216HW,2013-02-21 11:53:00,
2013-02-21 04:58:00,40.3,35.6,29.91,ENE,68,0.0,1.1,83,0.01,,,0.01,WUHU216HW,2013-02-21 11:58:00,
2013-02-21 05:03:00,40.3,35.6,29.91,ENE,68,0.4,1.1,83,0.01,,,0.01,WUHU216HW,2013-02-21 12:03:00,
2013-02-21 05:08:00,40.3,35.6,29.91,East,90,0.9,1.1,83,0.01,,,0.01,WUHU216HW,2013-02-21 12:08:00,
2013-02-21 05:10:00,40.3,35.6,29.91,ENE,68,2.0,2.0,83,0.01,,,0.01,WUHU216HW,2013-02-21 12:10:00,
2013-02-21 05:13:00,40.3,35.6,29.91,ENE,68,2.0,2.0,83,0.01,,,0.01,WUHU216HW,2013-02-21 12:13:00,
2013-02-21 05:18:00,40.3,35.6,29.91,ENE,68,2.0,2.0,83,0.01,,,0.01,WUHU216HW,2013-02-21 12:18:00,
2013-02-21 05:40:00,40.3,35.8,29.91,ESE,113,1.1,1.1,84,0.00,,,0.01,WUHU216HW,2013-02-21 12:40:00,
2013-02-21 05:45:00,40.3,35.8,29.91,ENE,68,0.4,1.8,84,0.00,,,0.01,WUHU216HW,2013-02-21 12:45:00,
2013-02-21 05:50:00,40.3,35.8,29.91,ESE,113,0.4,2.2,84,0.00,,,0.01,WUHU216HW,2013-02-21 12:50:00,
2013-02-21 05:55:00,40.5,36.0,29.92,ESE,113,1.1,2.2,84,0.00,,,0.01,WUHU216HW,2013-02-21 12:55:00,
2013-02-21 06:00:00,40.5,36.0,29.92,East,90,1.1,1.8,84,0.00,,,0.01,WUHU216HW,2013-02-21 13:00:00,
2013-02-21 06:05:00,40.5,36.0,29.92,ENE,68,0.7,1.8,84,0.00,,,0.01,WUHU216HW,2013-02-21 13:05:00,
2013-02-21 06:10:00,40.5,36.0,29.91,East,90,1.8,2.5,84,0.00,,,0.01,WUHU216HW,2013-02-21 13:10:00,
2013-02-21 06:15:00,40.5,36.0,29.92,ESE,113,0.0,2.5,84,0.00,,,0.01,WUHU216HW,2013-02-21 13:15:00,
2013-02-21 06:20:00,40.5,36.0,29.92,ESE,113,0.9,1.3,84,0.00,,,0.01,WUHU216HW,2013-02-21 13:20:00,
2013-02-21 06:25:00,40.5,36.0,29.92,East,90,0.9,1.1,84,0.00,,,0.01,WUHU216HW,2013-02-21 13:25:00,
2013-02-21 06:30:00,40.5,36.0,29.92,ENE,68,1.8,1.8,84,0.00,,,0.01,WUHU216HW,2013-02-21 13:30:00,
2013-02-21 06:35:00,40.7,36.2,29.92,ENE,68,0.4,1.8,84,0.00,,,0.01,WUHU216HW,2013-02-21 13:35:00,
2013-02-21 06:40:00,40.5,36.0,29.92,ESE,113,1.3,1.3,84,0.00,,,0.01,WUHU216HW,2013-02-21 13:40:00,
2013-02-21 06:45:00,40.5,36.0,29.92,ENE,68,0.9,1.3,84,0.00,,,0.01,WUHU216HW,2013-02-21 13:45:00,
2013-02-21 06:50:00,40.5,36.0,29.92,ESE,113,1.1,1.6,84,0.00,,,0.01,WUHU216HW,2013-02-21 13:50:00,
2013-02-21 06:55:00,40.7,36.2,29.92,ENE,68,1.1,1.6,84,0.00,,,0.01,WUHU216HW,2013-02-21 13:55:00,
2013-02-21 07:00:00,40.5,36.0,29.92,East,90,0.4,2.5,84,0.00,,,0.01,WUHU216HW,2013-02-21 14:00:00,
2013-02-21 07:05:00,40.5,36.0,29.92,East,90,0.4,2.5,84,0.00,,,0.01,WUHU216HW,2013-02-21 14:05:00,
2013-02-21 07:10:00,40.3,35.8,29.92,East,90,1.1,1.1,84,0.00,,,0.01,WUHU216HW,2013-02-21 14:10:00,
2013-02-21 07:15:00,40.1,35.6,29.92,ESE,113,0.7,1.1,84,0.00,,,0.01,WUHU216HW,2013-02-21 14:15:00,
2013-02-21 07:20:00,40.0,35.5,29.92,ESE,113,0.0,0.9,84,0.00,,,0.01,WUHU216HW,2013-02-21 14:20:00,
2013-02-21 07:25:00,40.0,35.5,29.92,East,90,0.4,0.4,84,0.00,,,0.01,WUHU216HW,2013-02-21 14:25:00,
2013-02-21 07:30:00,40.0,35.5,29.93,East,90,0.0,0.4,84,0.00,,,0.01,WUHU216HW,2013-02-21 14:30:00,
2013-02-21 07:35:00,40.0,35.5,29.93,ENE,68,0.4,0.4,84,0.00,,,0.01,WUHU216HW,2013-02-21 14:35:00,
2013-02-21 07:40:00,40.0,35.5,29.93,ENE,68,1.3,1.3,84,0.00,,,0.01,WUHU216HW,2013-02-21 14:40:00,
2013-02-21 07:45:00,40.0,35.5,29.93,ESE,113,0.7,1.3,84,0.00,,,0.01,WUHU216HW,2013-02-21 14:45:00,
2013-02-21 07:50:00,40.0,35.5,29.93,ENE,68,1.8,1.8,84,0.00,,,0.01,WUHU216HW,2013-02-21 14:50:00,
2013-02-21 07:55:00,40.0,35.5,29.93,ENE,68,0.7,1.8,84,0.00,,,0.01,WUHU216HW,2013-02-21 14:55:00,
2013-02-21 08:00:00,40.3,36.1,29.94,East,90,2.5,2.5,85,0.00,,,0.01,WUHU216HW,2013-02-21 15:00:00,
2013-02-21 08:05:00,40.5,36.3,29.94,East,90,1.8,3.1,85,0.00,,,0.01,WUHU216HW,2013-02-21 15:05:00,
2013-02-21 08:10:00,40.7,36.2,29.94,East,90,0.9,3.1,84,0.00,,,0.01,WUHU216HW,2013-02-21 15:10:00,
2013-02-21 08:13:00,40.7,36.2,29.94,SE,135,1.3,1.3,84,0.00,,,0.01,WUHU216HW,2013-02-21 15:13:00,
2013-02-21 08:15:00,40.7,36.2,29.94,SE,135,1.3,2.7,84,0.00,,,0.01,WUHU216HW,2013-02-21 15:15:00,
2013-02-21 08:20:00,40.7,36.2,29.94,SE,135,1.3,1.3,84,0.00,,,0.01,WUHU216HW,2013-02-21 15:20:00,
2013-02-21 08:43:00,42.5,37.6,29.95,ENE,68,2.2,2.2,83,0.00,,,0.01,WUHU216HW,2013-02-21 15:43:00,
2013-02-21 08:48:00,42.8,37.7,29.95,East,90,2.7,3.1,82,0.00,,,0.01,WUHU216HW,2013-02-21 15:48:00,
2013-02-21 08:53:00,42.8,37.7,29.95,ESE,113,4.3,4.3,82,0.00,,,0.01,WUHU216HW,2013-02-21 15:53:00,
2013-02-21 08:58:00,43.2,37.7,29.95,East,90,2.9,4.3,81,0.00,,,0.01,WUHU216HW,2013-02-21 15:58:00,
2013-02-21 09:03:00,43.6,38.1,29.95,ENE,68,3.1,4.0,81,0.00,,,0.01,WUHU216HW,2013-02-21 16:03:00,
2013-02-21 09:08:00,43.6,38.1,29.95,SE,135,3.4,6.3,81,0.00,,,0.01,WUHU216HW,2013-02-21 16:08:00,
2013-02-21 09:13:00,43.9,38.4,29.95,East,90,2.5,6.3,81,0.00,,,0.01,WUHU216HW,2013-02-21 16:13:00,
2013-02-21 09:18:00,44.3,38.5,29.95,ENE,68,2.7,6.3,80,0.00,,,0.01,WUHU216HW,2013-02-21 16:18:00,
2013-02-21 09:23:00,44.5,38.7,29.95,ESE,113,4.0,5.6,80,0.00,,,0.01,WUHU216HW,2013-02-21 16:23:00,
2013-02-21 09:28:00,44.8,38.7,29.95,SE,135,1.6,5.4,79,0.00,,,0.01,WUHU216HW,2013-02-21 16:28:00,
2013-02-21 09:33:00,45.0,38.9,29.96,East,90,2.9,4.7,79,0.00,,,0.01,WUHU216HW,2013-02-21 16:33:00,
2013-02-21 09:38:00,45.4,39.2,29.96,ESE,113,2.0,5.6,79,0.00,,,0.01,WUHU216HW,2013-02-21 16:38:00,
2013-02-21 09:43:00,45.4,38.9,29.96,ESE,113,1.6,5.6,78,0.00,,,0.01,WUHU216HW,2013-02-21 16:43:00,
2013-02-21 09:48:00,45.5,39.1,29.96,NNE,23,2.5,3.1,78,0.00,,,0.01,WUHU216HW,2013-02-21 16:48:00,
2013-02-21 09:53:00,45.7,39.2,29.96,NE,45,1.6,5.1,78,0.00,,,0.01,WUHU216HW,2013-02-21 16:53:00,
2013-02-21 09:58:00,45.9,39.2,29.96,ESE,113,1.1,5.6,77,0.00,,,0.01,WUHU216HW,2013-02-21 16:58:00,
2013-02-21 10:03:00,46.3,39.5,29.96,ESE,113,1.3,5.6,77,0.00,,,0.01,WUHU216HW,2013-02-21 17:03:00,
2013-02-21 10:04:00,46.1,39.6,29.96,ESE,113,1.1,1.1,78,0.00,,,0.01,WUHU216HW,2013-02-21 17:04:00,
2013-02-21 10:08:00,46.1,39.6,29.96,ESE,113,1.1,1.8,78,0.00,,,0.01,WUHU216HW,2013-02-21 17:08:00,
2013-02-21 10:13:00,46.1,39.6,29.96,ESE,113,1.1,1.1,78,0.00,,,0.01,WUHU216HW,2013-02-21 17:13:00,
2013-02-21 10:35:00,47.5,39.6,29.97,SSE,158,1.3,1.3,74,0.00,,,0.01,WUHU216HW,2013-02-21 17:35:00,
2013-02-21 10:40:00,47.7,39.4,29.97,SE,135,1.1,2.9,73,0.00,,,0.01,WUHU216HW,2013-02-21 17:40:00,
2013-02-21 10:45:00,47.9,39.6,29.97,SSE,158,2.9,2.9,73,0.00,,,0.01,WUHU216HW,2013-02-21 17:45:00,
2013-02-21 10:50:00,47.9,39.6,29.97,WSW,248,1.1,2.9,73,0.00,,,0.01,WUHU216HW,2013-02-21 17:50:00,
2013-02-21 10:55:00,48.2,39.9,29.97,ESE,113,3.4,3.4,73,0.00,,,0.01,WUHU216HW,2013-02-21 17:55:00,
2013-02-21 11:00:00,48.4,39.8,29.97,SSE,158,0.9,3.6,72,0.00,,,0.01,WUHU216HW,2013-02-21 18:00:00,
2013-02-21 11:05:00,48.4,39.8,29.97,ENE,68,4.0,4.0,72,0.00,,,0.01,WUHU216HW,2013-02-21 18:05:00,
2013-02-21 11:06:00,48.4,39.8,29.97,ESE,113,1.8,1.8,72,0.00,,,0.01,WUHU216HW,2013-02-21 18:06:00,
2013-02-21 11:10:00,48.4,39.8,29.97,ESE,113,1.8,4.0,72,0.00,,,0.01,WUHU216HW,2013-02-21 18:10:00,
2013-02-21 11:15:00,48.4,39.8,29.97,ESE,113,1.8,1.8,72,0.00,,,0.01,WUHU216HW,2013-02-21 18:15:00,
2013-02-21 11:36:00,49.3,39.6,29.96,SE,135,1.8,1.8,69,0.00,,,0.01,WUHU216HW,2013-02-21 18:36:00,
2013-02-21 11:41:00,49.5,39.8,29.96,SW,225,0.9,1.8,69,0.00,,,0.01,WUHU216HW,2013-02-21 18:41:00,
2013-02-21 11:46:00,49.3,39.6,29.96,NNE,23,0.9,2.7,69,0.00,,,0.01,WUHU216HW,2013-02-21 18:46:00,
2013-02-21 11:51:00,49.3,39.6,29.96,SE,135,2.7,2.7,69,0.00,,,0.01,WUHU216HW,2013-02-21 18:51:00,
2013-02-21 11:56:00,49.7,40.0,29.96,NW,315,1.8,2.7,69,0.00,,,0.01,WUHU216HW,2013-02-21 18:56:00,
2013-02-21 12:01:00,49.7,40.0,29.95,SW,225,1.3,2.7,69,0.00,,,0.01,WUHU216HW,2013-02-21 19:01:00,
2013-02-21 12:06:00,49.7,39.5,29.95,ESE,113,2.7,2.7,68,0.00,,,0.01,WUHU216HW,2013-02-21 19:06:00,
2013-02-21 12:11:00,50.0,39.9,29.95,West,270,1.6,2.7,68,0.00,,,0.01,WUHU216HW,2013-02-21 19:11:00,
2013-02-21 12:16:00,50.2,40.1,29.95,ENE,68,1.1,4.0,68,0.00,,,0.01,WUHU216HW,2013-02-21 19:16:00,
2013-02-21 12:21:00,50.2,39.7,29.94,East,90,1.1,4.9,67,0.00,,,0.01,WUHU216HW,2013-02-21 19:21:00,
2013-02-21 12:26:00,50.6,40.1,29.94,ESE,113,3.4,4.9,67,0.00,,,0.01,WUHU216HW,2013-02-21 19:26:00,
2013-02-21 12:31:00,50.8,39.8,29.94,ENE,68,3.4,4.0,66,0.00,,,0.01,WUHU216HW,2013-02-21 19:31:00,
2013-02-21 12:36:00,51.3,39.9,29.94,ESE,113,2.2,3.4,65,0.00,,,0.01,WUHU216HW,2013-02-21 19:36:00,
2013-02-21 12:41:00,51.7,40.2,29.94,ENE,68,2.2,3.1,65,0.00,,,0.01,WUHU216HW,2013-02-21 19:41:00,
2013-02-21 12:46:00,52.0,40.1,29.93,ENE,68,2.0,4.5,64,0.00,,,0.01,WUHU216HW,2013-02-21 19:46:00,
2013-02-21 12:51:00,52.2,40.0,29.93,WSW,248,0.7,4.5,63,0.00,,,0.01,WUHU216HW,2013-02-21 19:51:00,
2013-02-21 12:56:00,52.0,40.1,29.93,WSW,248,0.9,1.3,64,0.00,,,0.01,WUHU216HW,2013-02-21 19:56:00,
2013-02-21 13:00:00,51.8,40.0,29.93,SSW,203,0.7,1.1,64,0.00,,,0.01,WUHU216HW,2013-02-21 20:00:00,
2013-02-21 13:06:00,52.0,40.1,29.92,SW,225,1.1,1.8,64,0.00,,,0.01,WUHU216HW,2013-02-21 20:06:00,
2013-02-21 13:11:00,52.4,40.2,29.92,ENE,68,0.7,1.8,63,0.00,,,0.01,WUHU216HW,2013-02-21 20:11:00,
2013-02-21 13:16:00,52.9,40.2,29.92,ENE,68,1.8,1.8,62,0.00,,,0.01,WUHU216HW,2013-02-21 20:16:00,
2013-02-21 13:20:00,53.1,39.6,29.92,SE,135,0.0,1.8,60,0.00,,,0.01,WUHU216HW,2013-02-21 20:20:00,
2013-02-21 13:25:00,53.6,40.5,29.91,East,90,1.8,5.4,61,0.00,,,0.01,WUHU216HW,2013-02-21 20:25:00,
2013-02-21 13:30:00,54.4,40.8,29.91,SE,135,1.3,5.4,60,0.00,,,0.01,WUHU216HW,2013-02-21 20:30:00,
2013-02-21 13:35:00,54.5,40.1,29.91,NE,45,0.4,4.7,58,0.00,,,0.01,WUHU216HW,2013-02-21 20:35:00,
2013-02-21 13:40:00,54.7,40.1,29.90,SSW,203,0.4,4.7,58,0.00,,,0.01,WUHU216HW,2013-02-21 20:40:00,
2013-02-21 13:45:00,54.5,39.5,29.90,NNW,338,0.7,2.5,57,0.00,,,0.01,WUHU216HW,2013-02-21 20:45:00,
2013-02-21 13:50:00,54.5,40.1,29.90,ENE,68,1.8,2.0,58,0.00,,,0.01,WUHU216HW,2013-02-21 20:50:00,
2013-02-21 13:55:00,54.4,39.4,29.90,NNW,338,0.4,2.0,57,0.00,,,0.01,WUHU216HW,2013-02-21 20:55:00,
2013-02-21 14:00:00,54.0,39.5,29.90,WSW,248,4.0,4.0,58,0.00,,,0.01,WUHU216HW,2013-02-21 21:00:00,
2013-02-21 14:05:00,53.6,38.7,29.90,NE,45,0.4,4.0,57,0.00,,,0.01,WUHU216HW,2013-02-21 21:05:00,
2013-02-21 14:10:00,53.5,39.1,29.90,WSW,248,2.0,2.0,58,0.00,,,0.01,WUHU216HW,2013-02-21 21:10:00,
2013-02-21 14:15:00,53.5,39.1,29.90,SSE,158,0.4,2.0,58,0.00,,,0.01,WUHU216HW,2013-02-21 21:15:00,
2013-02-21 14:20:00,53.6,39.3,29.89,WNW,293,0.4,1.1,58,0.00,,,0.01,WUHU216HW,2013-02-21 21:20:00,
2013-02-21 14:25:00,53.8,38.9,29.89,West,270,1.6,1.8,57,0.00,,,0.01,WUHU216HW,2013-02-21 21:25:00,
2013-02-21 14:30:00,54.4,38.4,29.89,NW,315,1.1,2.0,55,0.00,,,0.01,WUHU216HW,2013-02-21 21:30:00,
2013-02-21 14:35:00,54.4,38.9,29.89,ENE,68,0.9,2.0,56,0.00,,,0.01,WUHU216HW,2013-02-21 21:35:00,
2013-02-21 14:40:00,54.4,38.9,29.89,WSW,248,1.1,1.1,56,0.00,,,0.01,WUHU216HW,2013-02-21 21:40:00,
2013-02-21 14:45:00,54.5,39.1,29.89,NW,315,0.7,1.1,56,0.00,,,0.01,WUHU216HW,2013-02-21 21:45:00,
2013-02-21 14:50:00,54.5,39.1,29.89,ESE,113,2.2,3.4,56,0.00,,,0.01,WUHU216HW,2013-02-21 21:50:00,
2013-02-21 14:55:00,54.7,38.8,29.89,SSE,158,0.2,3.4,55,0.00,,,0.01,WUHU216HW,2013-02-21 21:55:00,
2013-02-21 15:00:00,54.7,38.8,29.89,NW,315,0.4,1.8,55,0.00,,,0.01,WUHU216HW,2013-02-21 22:00:00,
2013-02-21 15:05:00,55.1,38.2,29.89,NNW,338,1.1,3.6,53,0.00,,,0.01,WUHU216HW,2013-02-21 22:05:00,
2013-02-21 15:10:00,55.4,39.0,29.89,West,270,1.1,3.6,54,0.00,,,0.01,WUHU216HW,2013-02-21 22:10:00,
2013-02-21 15:15:00,55.4,39.0,29.89,West,270,1.1,1.1,54,0.00,,,0.01,WUHU216HW,2013-02-21 22:15:00,
2013-02-21 15:40:00,55.8,38.3,29.88,NE,45,3.6,3.6,52,0.00,,,0.01,WUHU216HW,2013-02-21 22:40:00,
2013-02-21 15:45:00,55.8,38.3,29.88,NE,45,2.2,4.0,52,0.00,,,0.01,WUHU216HW,2013-02-21 22:45:00,
2013-02-21 15:50:00,55.8,38.3,29.88,North,0,1.1,4.0,52,0.00,,,0.01,WUHU216HW,2013-02-21 22:50:00,
2013-02-21 15:55:00,55.8,38.3,29.88,ENE,68,1.8,2.5,52,0.00,,,0.01,WUHU216HW,2013-02-21 22:55:00,
2013-02-21 16:00:00,55.6,38.2,29.88,NNW,338,0.4,2.9,52,0.00,,,0.01,WUHU216HW,2013-02-21 23:00:00,
2013-02-21 16:05:00,55.6,38.2,29.88,ENE,68,0.4,2.9,52,0.00,,,0.01,WUHU216HW,2013-02-21 23:05:00,
2013-02-21 16:10:00,55.4,38.0,29.88,WNW,293,0.0,2.2,52,0.00,,,0.01,WUHU216HW,2013-02-21 23:10:00,
2013-02-21 16:15:00,55.4,38.0,29.88,NNE,23,1.1,1.1,52,0.00,,,0.01,WUHU216HW,2013-02-21 23:15:00,
2013-02-21 16:20:00,55.4,38.0,29.88,NNE,23,0.0,1.1,52,0.00,,,0.01,WUHU216HW,2013-02-21 23:20:00,
2013-02-21 16:25:00,55.3,37.9,29.87,NNW,338,0.4,1.1,52,0.00,,,0.01,WUHU216HW,2013-02-21 23:25:00,
2013-02-21 16:30:00,55.4,38.0,29.87,SE,135,0.0,1.1,52,0.00,,,0.01,WUHU216HW,2013-02-21 23:30:00,
2013-02-21 16:35:00,55.4,38.0,29.87,NNE,23,0.2,0.7,52,0.00,,,0.01,WUHU216HW,2013-02-21 23:35:00,
2013-02-21 16:40:00,55.4,38.0,29.87,NE,45,0.0,0.7,52,0.00,,,0.01,WUHU216HW,2013-02-21 23:40:00,
2013-02-21 16:45:00,55.4,38.0,29.87,NE,45,0.0,1.8,52,0.00,,,0.01,WUHU216HW,2013-02-21 23:45:00,
2013-02-21 16:50:00,55.4,38.0,29.87,East,90,1.6,2.5,52,0.00,,,0.01,WUHU216HW,2013-02-21 23:50:00,
2013-02-21 16:55:00,55.4,38.0,29.87,ESE,113,0.0,2.5,52,0.00,,,0.01,WUHU216HW,2013-02-21 23:55:00,
2013-02-21 17:00:00,55.3,37.9,29.87,NNE,23,1.1,2.5,52,0.00,,,0.01,WUHU216HW,2013-02-22 00:00:00,
2013-02-21 17:05:00,55.1,37.7,29.87,NE,45,0.4,2.0,52,0.00,,,0.01,WUHU216HW,2013-02-22 00:05:00,
2013-02-21 17:10:00,55.1,37.7,29.87,East,90,1.8,1.8,52,0.00,,,0.01,WUHU216HW,2013-02-22 00:10:00,
2013-02-21 17:15:00,54.9,38.0,29.87,NNE,23,0.2,1.8,53,0.00,,,0.01,WUHU216HW,2013-02-22 00:15:00,
2013-02-21 17:20:00,54.7,37.4,29.87,WNW,293,2.2,2.2,52,0.00,,,0.01,WUHU216HW,2013-02-22 00:20:00,
2013-02-21 17:25:00,54.7,37.4,29.87,SE,135,0.0,2.2,52,0.00,,,0.01,WUHU216HW,2013-02-22 00:25:00,
2013-02-21 17:30:00,54.5,37.7,29.87,WNW,293,0.0,0.7,53,0.00,,,0.01,WUHU216HW,2013-02-22 00:30:00,
2013-02-21 17:35:00,54.5,37.7,29.87,North,0,0.2,0.4,53,0.00,,,0.01,WUHU216HW,2013-02-22 00:35:00,
2013-02-21 17:40:00,54.4,37.5,29.87,NNW,338,0.2,0.4,53,0.00,,,0.01,WUHU216HW,2013-02-22 00:40:00,
2013-02-21 17:45:00,54.2,37.8,29.87,NE,45,0.0,0.4,54,0.00,,,0.01,WUHU216HW,2013-02-22 00:45:00,
2013-02-21 17:47:00,54.2,38.3,29.87,NNE,23,1.1,1.1,55,0.00,,,0.01,WUHU216HW,2013-02-22 00:47:00,
2013-02-21 17:50:00,54.2,38.3,29.87,NNE,23,1.1,1.1,55,0.00,,,0.01,WUHU216HW,2013-02-22 00:50:00,
2013-02-21 17:55:00,54.2,38.3,29.87,NNE,23,1.1,1.1,55,0.00,,,0.01,WUHU216HW,2013-02-22 00:55:00,
2013-02-21 18:00:00,53.6,37.4,29.87,NE,45,1.1,1.1,54,0.00,,,0.01,WUHU216HW,2013-02-22 01:00:00,
2013-02-21 18:05:00,53.6,37.4,29.88,ENE,68,0.4,1.3,54,0.00,,,0.01,WUHU216HW,2013-02-22 01:05:00,
2013-02-21 18:10:00,53.3,37.0,29.88,NNE,23,0.0,1.3,54,0.00,,,0.01,WUHU216HW,2013-02-22 01:10:00,
2013-02-21 18:15:00,53.1,37.3,29.88,NE,45,0.0,0.9,55,0.00,,,0.01,WUHU216HW,2013-02-22 01:15:00,
2013-02-21 18:20:00,52.9,37.1,29.88,NE,45,0.0,0.9,55,0.00,,,0.01,WUHU216HW,2013-02-22 01:20:00,
2013-02-21 18:25:00,52.7,36.9,29.88,North,0,0.4,1.3,55,0.00,,,0.01,WUHU216HW,2013-02-22 01:25:00,
2013-02-21 18:30:00,52.6,37.3,29.88,NE,45,1.1,1.3,56,0.00,,,0.01,WUHU216HW,2013-02-22 01:30:00,
2013-02-21 18:35:00,52.6,37.3,29.89,ENE,68,0.4,1.1,56,0.00,,,0.01,WUHU216HW,2013-02-22 01:35:00,
2013-02-21 18:40:00,52.4,37.1,29.89,NE,45,0.0,1.1,56,0.00,,,0.01,WUHU216HW,2013-02-22 01:40:00,
2013-02-21 18:45:00,52.2,37.4,29.89,ENE,68,0.0,0.4,57,0.00,,,0.01,WUHU216HW,2013-02-22 01:45:00,
2013-02-21 18:50:00,52.0,37.2,29.89,NE,45,0.4,0.4,57,0.00,,,0.01,WUHU216HW,2013-02-22 01:50:00,
2013-02-21 18:55:00,51.8,37.4,29.89,NE,45,0.2,0.4,58,0.00,,,0.01,WUHU216HW,2013-02-22 01:55:00,
2013-02-21 19:00:00,51.7,37.3,29.89,North,0,0.7,1.1,58,0.00,,,0.01,WUHU216HW,2013-02-22 02:00:00,
2013-02-21 19:05:00,51.7,37.7,29.89,NE,45,0.0,1.1,59,0.00,,,0.01,WUHU216HW,2013-02-22 02:05:00,
2013-02-21 19:10:00,51.5,38.0,29.89,NNE,23,0.0,0.4,60,0.00,,,0.01,WUHU216HW,2013-02-22 02:10:00,
2013-02-21 19:15:00,51.3,38.3,29.89,NNE,23,0.0,0.0,61,0.00,,,0.01,WUHU216HW,2013-02-22 02:15:00,
2013-02-21 19:20:00,51.1,38.1,29.90,NE,45,0.0,0.0,61,0.00,,,0.01,WUHU216HW,2013-02-22 02:20:00,
2013-02-21 19:25:00,50.8,38.2,29.90,NE,45,0.0,0.0,62,0.00,,,0.01,WUHU216HW,2013-02-22 02:25:00,
2013-02-21 19:30:00,50.8,38.2,29.90,NNE,23,0.4,0.4,62,0.00,,,0.01,WUHU216HW,2013-02-22 02:30:00,
2013-02-21 19:35:00,50.6,38.4,29.90,NNE,23,0.0,0.4,63,0.00,,,0.01,WUHU216HW,2013-02-22 02:35:00,
2013-02-21 19:40:00,50.4,38.3,29.90,NNE,23,0.0,0.0,63,0.00,,,0.01,WUHU216HW,2013-02-22 02:40:00,
2013-02-21 19:45:00,50.4,38.6,29.90,East,90,0.0,0.0,64,0.00,,,0.01,WUHU216HW,2013-02-22 02:45:00,
2013-02-21 19:50:00,50.2,38.4,29.90,East,90,0.0,0.9,64,0.00,,,0.01,WUHU216HW,2013-02-22 02:50:00,
2013-02-21 19:55:00,50.0,38.4,29.90,East,90,0.2,0.9,64,0.00,,,0.01,WUHU216HW,2013-02-22 02:55:00,
2013-02-21 20:00:00,50.0,38.4,29.90,NE,45,0.0,0.4,64,0.00,,,0.01,WUHU216HW,2013-02-22 03:00:00,
2013-02-21 20:04:00,50.0,38.4,29.91,NE,45,0.0,0.0,64,0.00,,,0.01,WUHU216HW,2013-02-22 03:04:00,
2013-02-21 20:05:00,50.0,38.4,29.91,NE,45,0.0,0.2,64,0.00,,,0.01,WUHU216HW,2013-02-22 03:05:00,
2013-02-21 20:10:00,50.0,38.4,29.91,NE,45,0.0,0.0,64,0.00,,,0.01,WUHU216HW,2013-02-22 03:10:00,
2013-02-21 20:34:00,49.3,38.4,29.92,ENE,68,0.0,0.0,66,0.00,,,0.01,WUHU216HW,2013-02-22 03:34:00,
2013-02-21 20:39:00,49.3,38.4,29.91,ENE,68,0.0,0.0,66,0.00,,,0.01,WUHU216HW,2013-02-22 03:39:00,
2013-02-21 20:44:00,49.1,38.3,29.92,ENE,68,0.0,0.0,66,0.00,,,0.01,WUHU216HW,2013-02-22 03:44:00,
2013-02-21 20:49:00,49.1,38.6,29.92,ENE,68,0.0,0.0,67,0.00,,,0.01,WUHU216HW,2013-02-22 03:49:00,
2013-02-21 20:54:00,49.0,38.4,29.92,ENE,68,0.0,0.0,67,0.00,,,0.01,WUHU216HW,2013-02-22 03:54:00,
2013-02-21 20:59:00,48.8,38.3,29.92,ENE,68,0.0,0.0,67,0.00,,,0.01,WUHU216HW,2013-02-22 03:59:00,
2013-02-21 21:04:00,48.6,38.1,29.92,NNE,23,0.0,0.0,67,0.00,,,0.01,WUHU216HW,2013-02-22 04:04:00,
2013-02-21 21:09:00,48.4,38.4,29.92,NNW,338,0.0,0.0,68,0.00,,,0.01,WUHU216HW,2013-02-22 04:09:00,
2013-02-21 21:14:00,48.2,38.2,29.93,NNW,338,0.0,0.0,68,0.00,,,0.01,WUHU216HW,2013-02-22 04:14:00,
2013-02-21 21:19:00,48.1,38.0,29.92,NNW,338,0.0,0.0,68,0.00,,,0.01,WUHU216HW,2013-02-22 04:19:00,
2013-02-21 21:24:00,47.9,38.2,29.93,NNE,23,0.0,0.0,69,0.00,,,0.01,WUHU216HW,2013-02-22 04:24:00,
2013-02-21 21:29:00,47.5,37.9,29.93,NNE,23,0.0,0.0,69,0.00,,,0.01,WUHU216HW,2013-02-22 04:29:00,
2013-02-21 21:34:00,47.3,38.1,29.93,ENE,68,0.0,0.0,70,0.00,,,0.01,WUHU216HW,2013-02-22 04:34:00,
2013-02-21 21:39:00,47.2,37.9,29.92,NE,45,0.0,0.0,70,0.00,,,0.01,WUHU216HW,2013-02-22 04:39:00,
2013-02-21 21:40:00,47.2,37.9,29.93,NE,45,0.0,0.0,70,0.00,,,0.01,WUHU216HW,2013-02-22 04:40:00,
2013-02-21 21:44:00,47.2,37.9,29.93,NE,45,0.0,0.0,70,0.00,,,0.01,WUHU216HW,2013-02-22 04:44:00,
2013-02-21 21:49:00,47.2,37.9,29.93,NE,45,0.0,0.0,70,0.00,,,0.01,WUHU216HW,2013-02-22 04:49:00,
2013-02-21 22:00:00,46.4,37.6,29.93,North,0,0.0,0.0,71,0.00,,,0.01,WUHU216HW,2013-02-22 05:00:00,
2013-02-21 22:05:00,46.3,37.8,29.93,North,0,0.0,0.0,72,0.00,,,0.01,WUHU216HW,2013-02-22 05:05:00,
2013-02-21 22:10:00,46.1,37.6,29.93,North,0,0.0,0.0,72,0.00,,,0.01,WUHU216HW,2013-02-22 05:10:00,
2013-02-21 22:15:00,45.7,37.3,29.93,North,0,0.0,0.0,72,0.00,,,0.01,WUHU216HW,2013-02-22 05:15:00,
2013-02-21 22:20:00,45.7,37.5,29.93,North,0,0.0,0.0,73,0.00,,,0.01,WUHU216HW,2013-02-22 05:20:00,
2013-02-21 22:26:00,45.4,37.2,29.93,NNW,338,0.0,0.0,73,0.00,,,0.01,WUHU216HW,2013-02-22 05:26:00,
2013-02-21 22:30:00,45.2,37.0,29.93,NNW,338,0.0,0.0,73,0.00,,,0.01,WUHU216HW,2013-02-22 05:30:00,
2013-02-21 22:35:00,45.0,37.2,29.93,NNW,338,0.0,0.0,74,0.00,,,0.01,WUHU216HW,2013-02-22 05:35:00,
2013-02-21 22:40:00,45.0,37.2,29.93,NNW,338,0.0,0.0,74,0.00,,,0.01,WUHU216HW,2013-02-22 05:40:00,
2013-02-21 22:45:00,44.8,37.0,29.93,NNW,338,0.0,0.0,74,0.00,,,0.01,WUHU216HW,2013-02-22 05:45:00,
2013-02-21 22:50:00,44.6,36.8,29.94,NNW,338,0.0,0.0,74,0.00,,,0.01,WUHU216HW,2013-02-22 05:50:00,
2013-02-21 22:55:00,44.5,36.6,29.94,NE,45,0.0,0.0,74,0.00,,,0.01,WUHU216HW,2013-02-22 05:55:00,
2013-02-21 23:00:00,44.3,36.8,29.94,ENE,68,0.4,0.4,75,0.00,,,0.01,WUHU216HW,2013-02-22 06:00:00,
2013-02-21 23:05:00,44.3,36.8,29.94,ENE,68,0.0,0.4,75,0.00,,,0.01,WUHU216HW,2013-02-22 06:05:00,
2013-02-21 23:10:00,44.5,37.0,29.94,WNW,293,0.4,0.4,75,0.00,,,0.01,WUHU216HW,2013-02-22 06:10:00,
2013-02-21 23:15:00,44.8,37.7,29.94,WSW,248,0.0,0.4,76,0.00,,,0.01,WUHU216HW,2013-02-22 06:15:00,
2013-02-21 23:20:00,45.4,38.3,29.94,ESE,113,0.0,0.0,76,0.00,,,0.01,WUHU216HW,2013-02-22 06:20:00,
2013-02-21 23:25:00,45.7,38.6,29.93,ESE,113,0.0,0.0,76,0.00,,,0.01,WUHU216HW,2013-02-22 06:25:00,
2013-02-21 23:30:00,45.9,38.4,29.94,ESE,113,0.0,0.0,75,0.00,,,0.01,WUHU216HW,2013-02-22 06:30:00,
2013-02-21 23:35:00,46.3,38.8,29.93,ESE,113,0.4,0.9,75,0.00,,,0.01,WUHU216HW,2013-02-22 06:35:00,
2013-02-21 23:40:00,46.4,39.0,29.93,ESE,113,0.0,0.9,75,0.00,,,0.01,WUHU216HW,2013-02-22 06:40:00,
2013-02-21 23:45:00,46.3,38.8,29.94,ESE,113,0.0,0.2,75,0.00,,,0.01,WUHU216HW,2013-02-22 06:45:00,
2013-02-21 23:50:00,46.4,38.6,29.93,ENE,68,0.0,0.0,74,0.00,,,0.01,WUHU216HW,2013-02-22 06:50:00,
2013-02-21 23:55:00,46.4,38.6,29.94,ENE,68,0.0,0.4,74,0.00,,,0.01,WUHU216HW,2013-02-22 06:55:00,